Time;durP1;ratioP1;P1;durP2;ratioP2;P2;SDS_P1;SDS_P2;PMS_P1;PMS_P2;Temp;Humidity;BMP_temperature;BMP_pressure;BME280_temperature;BME280_humidity;BME280_pressure;Samples;Min_cycle;Max_cycle;Signal;HPM_P1;HPM_P2
2022/08/31 00:06:14;;;;;;;;;;;20.50;57.10;;;16.49;95.27;95686.38;4971172;28;19912;-47
2022/08/31 00:08:40;;;;;;;;;;;20.50;57.20;;;16.49;95.11;95685.56;4971597;28;19971;-46
2022/08/31 00:11:08;;;;;;;;;;;20.50;57.20;;;16.48;94.91;95686.66;4969401;28;20360;-48
2022/08/31 00:13:36;;;;;;;;;;;20.50;57.30;;;16.48;95.18;95671.31;4971414;28;19921;-47
2022/08/31 00:16:06;;;;;;;;;;;20.50;57.40;;;16.49;94.94;95677.50;4971379;28;19941;-48
2022/08/31 00:18:32;;;;;;;;;;;20.50;57.40;;;16.48;95.08;95678.59;4954211;28;20336;-49
2022/08/31 00:20:58;;;;;;;;;;;20.50;57.40;;;16.48;95.83;95681.28;4969624;28;19951;-49
2022/08/31 00:23:33;;;;;;;;;;;20.50;57.50;;;16.48;95.50;95671.31;4966819;28;20081;-47
2022/08/31 00:26:01;;;;;;;;;;;20.50;57.50;;;16.48;95.37;95668.63;4950581;29;19906;-47
2022/08/31 00:28:42;;;;;;;;;;;20.50;57.60;;;16.49;95.56;95682.88;4952152;28;19964;-48
2022/08/31 00:31:08;;;;;;;;;;;20.50;57.60;;;16.49;95.49;95689.06;4951651;28;19913;-46
2022/08/31 00:33:37;;;;;;;;;;;20.50;57.70;;;16.51;95.45;95672.59;4952719;28;20296;-47
2022/08/31 00:36:11;;;;;;;;;;;20.50;57.80;;;16.51;95.47;95675.28;4953935;28;19910;-48
2022/08/31 00:38:48;;;;;;;;;;;20.50;57.80;;;16.52;95.72;95675.00;4938530;28;20197;-50
2022/08/31 00:41:23;;;;;;;;;;;20.50;57.80;;;16.52;95.62;95680.38;4954045;28;19906;-48
2022/08/31 00:44:02;;;;;;;;;;;20.50;57.90;;;16.52;95.90;95682.28;4954264;28;19945;-46
2022/08/31 00:46:37;;;;;;;;;;;20.60;58.00;;;16.54;95.69;95678.19;4974282;28;19906;-46
2022/08/31 00:49:32;;;;;;;;;;;20.50;58.00;;;16.56;95.89;95681.38;4973768;28;19917;-47
2022/08/31 00:52:22;;;;;;;;;;;20.60;58.10;;;16.56;95.79;95678.69;4972717;28;20352;-47
2022/08/31 00:54:59;;;;;;;;;;;20.50;58.20;;;16.58;95.67;95678.41;4974785;28;19905;-47
2022/08/31 00:57:35;;;;;;;;;;;20.50;58.30;;;16.61;95.45;95667.03;4973239;28;20415;-46
2022/08/31 01:00:13;;;;;;;;;;;20.50;58.30;;;16.62;95.02;95674.00;4956836;28;20439;-47
2022/08/31 01:02:39;;;;;;;;;;;20.60;58.40;;;16.59;95.12;95679.97;4973072;28;19905;-50
2022/08/31 01:05:07;;;;;;;;;;;20.60;58.40;;;16.58;95.08;95673.81;4962247;28;19956;-50
2022/08/31 01:07:39;;;;;;;;;;;20.60;58.40;;;16.61;95.16;95683.19;4953808;28;20367;-49
2022/08/31 01:10:07;;;;;;;;;;;20.60;58.50;;;16.63;94.89;95678.28;4942040;28;19912;-47
2022/08/31 01:12:34;;;;;;;;;;;20.60;58.50;;;16.66;94.63;95685.75;4988553;28;19917;-47
2022/08/31 01:15:05;;;;;;;;;;;20.60;58.60;;;16.66;95.02;95681.16;4972463;28;20443;-47
2022/08/31 01:17:47;;;;;;;;;;;20.60;58.60;;;16.67;94.94;95687.31;4973053;28;20373;-46
2022/08/31 01:21:04;;;;;;;;;;;20.60;58.60;;;16.67;94.73;95687.31;4972300;28;20399;-49
2022/08/31 01:23:41;;;;;;;;;;;20.70;58.60;;;16.69;94.73;95682.44;4973152;28;19909;-46
2022/08/31 01:26:14;;;;;;;;;;;20.60;58.60;;;16.68;94.96;95691.63;4957171;28;20372;-45
2022/08/31 01:28:40;;;;;;;;;;;20.60;58.70;;;16.66;95.34;95693.81;4972961;28;20283;-45
2022/08/31 01:31:22;;;;;;;;;;;20.60;58.70;;;16.65;95.47;95690.34;4988354;28;19914;-45
2022/08/31 01:33:50;;;;;;;;;;;20.60;58.70;;;16.65;95.65;95708.38;4972485;28;20024;-44
2022/08/31 01:36:17;;;;;;;;;;;20.60;58.80;;;16.65;95.33;95708.38;4973615;28;19917;-46
2022/08/31 01:38:43;;;;;;;;;;;20.60;58.80;;;16.64;95.38;95701.41;4972546;28;19909;-47
2022/08/31 01:41:12;;;;;;;;;;;20.60;58.90;;;16.63;95.16;95705.16;4973321;28;19905;-46
2022/08/31 01:43:47;;;;;;;;;;;20.60;58.90;;;16.61;95.11;95705.47;4973742;28;19972;-47
2022/08/31 01:46:14;;;;;;;;;;;20.60;59.00;;;16.62;95.33;95703.59;4971541;28;19955;-46
2022/08/31 01:48:45;;;;;;;;;;;20.60;59.10;;;16.61;95.36;95704.69;4973844;28;19912;-45
2022/08/31 01:51:15;;;;;;;;;;;20.60;59.10;;;16.60;95.19;95711.16;4972129;28;19996;-46
2022/08/31 01:53:43;;;;;;;;;;;20.60;59.10;;;16.58;95.05;95706.09;4956421;28;19996;-44
2022/08/31 01:56:26;;;;;;;;;;;20.50;59.10;;;16.58;95.53;95707.97;4956159;28;19983;-44
2022/08/31 01:58:56;;;;;;;;;;;20.50;59.10;;;16.58;95.46;95707.97;4971411;28;19910;-45
2022/08/31 02:01:29;;;;;;;;;;;20.50;59.20;;;16.55;95.74;95717.44;4955844;28;19909;-45
2022/08/31 02:03:57;;;;;;;;;;;20.50;59.30;;;16.52;95.82;95715.34;4970056;28;20035;-45
2022/08/31 02:06:32;;;;;;;;;;;20.50;59.30;;;16.51;95.77;95708.34;4952782;28;19910;-45
2022/08/31 02:09:04;;;;;;;;;;;20.50;59.40;;;16.51;95.67;95708.34;4952562;28;19910;-45
2022/08/31 02:11:33;;;;;;;;;;;20.50;59.50;;;16.51;95.74;95712.94;4967515;28;19960;-50
2022/08/31 02:14:06;;;;;;;;;;;20.50;59.50;;;16.49;96.30;95705.19;4988060;28;19909;-46
2022/08/31 02:16:36;;;;;;;;;;;20.50;59.50;;;16.49;96.57;95707.09;4971736;28;19963;-46
2022/08/31 02:19:06;;;;;;;;;;;20.50;59.60;;;16.49;96.63;95704.38;4971480;28;19945;-46
2022/08/31 02:21:36;;;;;;;;;;;20.50;59.70;;;16.48;96.84;95710.84;4970810;28;20269;-45
2022/08/31 02:24:14;;;;;;;;;;;20.50;59.70;;;16.48;96.51;95708.16;4972910;28;19920;-44
2022/08/31 02:26:43;;;;;;;;;;;20.40;59.70;;;16.46;96.96;95716.53;4956046;28;19910;-47
2022/08/31 02:29:08;;;;;;;;;;;20.50;59.90;;;16.46;97.43;95721.13;4954664;28;20377;-45
2022/08/31 02:31:43;;;;;;;;;;;20.50;59.90;;;16.43;98.13;95717.91;4951826;28;19906;-45
2022/08/31 02:34:12;;;;;;;;;;;20.50;59.90;;;16.46;98.00;95716.53;4952351;28;20253;-45
2022/08/31 02:36:44;;;;;;;;;;;20.50;59.90;;;16.47;97.89;95720.00;4956721;28;19905;-44
2022/08/31 02:39:12;;;;;;;;;;;20.50;60.00;;;16.48;97.55;95721.59;4971467;28;19910;-45
2022/08/31 02:41:41;;;;;;;;;;;20.40;60.00;;;16.46;98.24;95723.81;4971657;28;19910;-47
2022/08/31 02:44:09;;;;;;;;;;;20.40;60.00;;;16.46;98.51;95723.81;4972832;28;19963;-46
2022/08/31 02:46:40;;;;;;;;;;;20.50;60.10;;;16.46;98.17;95721.91;4987423;28;19906;-45
2022/08/31 02:49:09;;;;;;;;;;;20.50;60.10;;;16.46;98.00;95719.22;4971476;28;19910;-45
2022/08/31 02:51:44;;;;;;;;;;;20.50;60.10;;;16.47;98.37;95725.38;4971305;28;19913;-47
2022/08/31 02:54:13;;;;;;;;;;;20.50;60.30;;;16.45;98.40;95722.19;4968468;28;19913;-46
2022/08/31 02:56:39;;;;;;;;;;;20.50;60.30;;;16.45;98.34;95727.56;4936034;29;20376;-46
2022/08/31 02:59:05;;;;;;;;;;;20.50;60.40;;;16.44;98.58;95724.09;4951590;28;19952;-45
2022/08/31 03:01:31;;;;;;;;;;;20.50;60.50;;;16.45;98.64;95720.28;4951043;28;20355;-45
2022/08/31 03:03:59;;;;;;;;;;;20.40;60.40;;;16.43;98.97;95720.59;4953163;28;19910;-48
2022/08/31 03:06:30;;;;;;;;;;;20.50;60.60;;;16.42;99.03;95716.34;4951852;28;19913;-45
2022/08/31 03:08:59;;;;;;;;;;;20.40;60.50;;;16.41;99.07;95717.41;4953018;28;19952;-48
2022/08/31 03:11:26;;;;;;;;;;;20.40;60.60;;;16.41;98.90;95717.41;4951174;28;19964;-45
2022/08/31 03:13:52;;;;;;;;;;;20.40;60.60;;;16.41;98.65;95728.16;4951558;28;20049;-49
2022/08/31 03:16:24;;;;;;;;;;;20.40;60.70;;;16.38;98.81;95726.06;4951522;28;20373;-46
2022/08/31 03:18:50;;;;;;;;;;;20.40;60.70;;;16.38;98.69;95725.28;4952933;28;19952;-47
2022/08/31 03:21:22;;;;;;;;;;;20.40;60.80;;;16.36;98.83;95717.53;4965953;28;20000;-46
2022/08/31 03:23:51;;;;;;;;;;;20.40;60.90;;;16.34;99.23;95725.09;4970839;28;19912;-46
2022/08/31 03:26:17;;;;;;;;;;;20.40;61.60;;;16.29;99.48;95724.38;4972045;28;19968;-46
2022/08/31 03:28:42;;;;;;;;;;;20.30;60.90;;;16.31;99.26;95722.19;4970728;28;19910;-50
2022/08/31 03:31:09;;;;;;;;;;;20.40;61.00;;;16.31;99.66;95725.69;4970898;28;20478;-49
2022/08/31 03:33:41;;;;;;;;;;;20.40;61.10;;;16.33;99.55;95720.81;4954586;28;19910;-46
2022/08/31 03:36:07;;;;;;;;;;;20.40;61.10;;;16.37;99.25;95721.00;4970873;28;19920;-45
2022/08/31 03:38:36;;;;;;;;;;;20.30;61.20;;;16.38;99.19;95725.28;4986774;28;20259;-47
2022/08/31 03:41:08;;;;;;;;;;;20.40;61.30;;;16.39;99.25;95719.63;4971440;28;20295;-49
2022/08/31 03:43:40;;;;;;;;;;;20.40;61.30;;;16.40;99.34;95723.91;4970549;28;19932;-46
2022/08/31 03:46:08;;;;;;;;;;;20.40;61.30;;;16.41;99.42;95728.16;4970634;28;19953;-45
2022/08/31 03:48:39;;;;;;;;;;;20.40;61.40;;;16.42;99.07;95723.56;4971887;28;19944;-48
2022/08/31 03:51:08;;;;;;;;;;;20.40;61.40;;;16.37;100.00;95735.25;4971477;28;20368;-49
2022/08/31 03:53:35;;;;;;;;;;;20.40;61.50;;;16.36;100.00;95733.66;4970513;28;20615;-46
2022/08/31 03:56:02;;;;;;;;;;;20.40;61.50;;;16.39;99.88;95729.59;4967094;28;19906;-46
2022/08/31 03:58:30;;;;;;;;;;;20.40;61.50;;;16.41;99.83;95733.53;4971535;28;19910;-47
2022/08/31 04:01:12;;;;;;;;;;;20.40;61.60;;;16.40;100.00;95733.84;4986432;28;19909;-45
2022/08/31 04:03:38;;;;;;;;;;;20.50;61.70;;;16.41;100.00;95730.84;4970814;28;20292;-45
2022/08/31 04:06:10;;;;;;;;;;;20.40;61.60;;;16.40;100.00;95729.28;4972012;28;19916;-46
2022/08/31 04:08:39;;;;;;;;;;;20.40;61.70;;;16.40;100.00;95729.28;4972667;28;20004;-45
2022/08/31 04:11:15;;;;;;;;;;;20.50;61.80;;;16.41;100.00;95738.13;4973879;28;19906;-45
2022/08/31 04:13:44;;;;;;;;;;;20.50;61.80;;;16.41;100.00;95730.84;4975524;28;20496;-45
2022/08/31 04:16:15;;;;;;;;;;;20.50;61.80;;;16.46;100.00;95738.03;4974476;28;19963;-45
2022/08/31 04:18:44;;;;;;;;;;;20.50;61.80;;;16.48;100.00;95738.53;4971041;28;19933;-46
2022/08/31 04:21:20;;;;;;;;;;;20.50;61.90;;;16.48;100.00;95738.53;4962063;28;19905;-46
2022/08/31 04:23:49;;;;;;;;;;;20.50;61.90;;;16.51;99.90;95739.81;4960074;28;19910;-45
2022/08/31 04:26:37;;;;;;;;;;;20.50;61.90;;;16.51;100.00;95734.44;4955089;28;19906;-46
2022/08/31 04:29:04;;;;;;;;;;;20.50;62.00;;;16.53;100.00;95740.34;4950690;28;20369;-45
2022/08/31 04:31:46;;;;;;;;;;;20.50;62.00;;;16.53;100.00;95737.66;4974040;28;20418;-49
2022/08/31 04:34:15;;;;;;;;;;;20.50;62.10;;;16.51;100.00;95737.13;4974003;28;19905;-44
2022/08/31 04:36:44;;;;;;;;;;;20.50;62.10;;;16.53;99.92;95732.25;4958109;28;19936;-45
2022/08/31 04:39:10;;;;;;;;;;;20.50;62.10;;;16.52;99.97;95736.84;4973544;28;19910;-44
2022/08/31 04:41:39;;;;;;;;;;;20.60;62.20;;;16.50;100.00;95730.19;4970150;28;19910;-49
2022/08/31 04:44:06;;;;;;;;;;;20.60;62.20;;;16.52;99.75;95728.00;4938652;28;20005;-44
2022/08/31 04:46:44;;;;;;;;;;;20.60;62.20;;;16.50;99.67;95735.53;4954155;28;19906;-46
2022/08/31 04:49:13;;;;;;;;;;;20.60;62.20;;;16.50;99.68;95730.19;4970170;28;19906;-43
2022/08/31 04:51:39;;;;;;;;;;;20.50;62.20;;;16.46;100.00;95729.19;4955710;28;19906;-47
2022/08/31 04:54:12;;;;;;;;;;;20.50;62.30;;;16.46;99.95;95731.88;4955503;28;19906;-43
2022/08/31 04:56:44;;;;;;;;;;;20.50;62.20;;;16.47;99.66;95736.16;4938313;28;19906;-44
2022/08/31 04:59:16;;;;;;;;;;;20.50;62.30;;;16.46;99.58;95735.34;4969882;28;19917;-45
2022/08/31 05:01:44;;;;;;;;;;;20.50;62.30;;;16.42;99.80;95735.16;4938337;28;19985;-44
2022/08/31 05:04:14;;;;;;;;;;;20.50;62.40;;;16.42;99.50;95742.41;4954389;28;20380;-44
2022/08/31 05:06:46;;;;;;;;;;;20.50;62.40;;;16.39;99.26;95738.44;4960545;28;19959;-44
2022/08/31 05:09:17;;;;;;;;;;;20.50;62.40;;;16.38;99.36;95739.50;4973060;28;19971;-47
2022/08/31 05:11:44;;;;;;;;;;;20.50;62.40;;;16.33;98.01;95744.22;4971350;28;20395;-44
2022/08/31 05:14:13;;;;;;;;;;;20.40;62.30;;;16.32;98.32;95740.69;4972888;28;19909;-47
2022/08/31 05:16:40;;;;;;;;;;;20.40;62.40;;;16.31;98.19;95732.94;4968521;28;19942;-47
2022/08/31 05:19:11;;;;;;;;;;;20.40;62.30;;;16.27;98.23;95731.97;4953831;28;19964;-46
2022/08/31 05:21:41;;;;;;;;;;;20.40;62.40;;;16.20;98.44;95732.31;4955459;28;19912;-46
2022/08/31 05:24:21;;;;;;;;;;;20.40;62.40;;;16.20;98.25;95737.69;4961066;28;19910;-45
2022/08/31 05:26:53;;;;;;;;;;;20.40;62.40;;;16.18;98.18;95734.53;4954670;28;19906;-48
2022/08/31 05:29:23;;;;;;;;;;;20.30;62.40;;;16.16;98.22;95734.81;4965261;28;19905;-52
2022/08/31 05:31:50;;;;;;;;;;;20.30;62.50;;;16.18;98.08;95737.22;4959244;28;19906;-46
2022/08/31 05:34:16;;;;;;;;;;;20.30;62.50;;;16.16;98.30;95740.19;4980785;28;20623;-46
2022/08/31 05:36:48;;;;;;;;;;;20.30;62.50;;;16.17;98.25;95739.09;4969293;28;19916;-46
2022/08/31 05:39:14;;;;;;;;;;;20.30;62.50;;;16.17;98.52;95743.69;4951744;28;19917;-46
2022/08/31 05:41:44;;;;;;;;;;;20.30;62.60;;;16.14;98.41;95745.06;4940144;28;19906;-46
2022/08/31 05:44:11;;;;;;;;;;;20.30;62.60;;;16.11;97.81;95750.25;4970088;28;19928;-48
2022/08/31 05:46:38;;;;;;;;;;;20.20;62.60;;;16.10;98.24;95744.03;4948047;28;19928;-46
2022/08/31 05:49:08;;;;;;;;;;;20.20;62.70;;;16.11;98.04;95752.94;4955167;28;19916;-48
2022/08/31 05:51:38;;;;;;;;;;;20.20;62.70;;;16.13;98.05;95748.81;4953086;28;19941;-46
2022/08/31 05:54:06;;;;;;;;;;;20.20;62.70;;;16.14;97.99;95757.72;4956429;28;19916;-49
2022/08/31 05:56:33;;;;;;;;;;;20.20;62.70;;;16.15;98.11;95749.34;4966486;28;19955;-48
2022/08/31 05:58:59;;;;;;;;;;;20.20;62.80;;;16.14;98.14;95758.50;4971451;28;20384;-48
2022/08/31 06:01:36;;;;;;;;;;;20.20;62.90;;;16.13;98.09;95756.09;4971989;28;19925;-46
2022/08/31 06:04:03;;;;;;;;;;;20.20;62.90;;;16.12;98.31;95758.00;4973689;28;19948;-51
2022/08/31 06:06:30;;;;;;;;;;;20.20;62.90;;;16.14;98.22;95758.50;4972532;28;19906;-47
2022/08/31 06:08:57;;;;;;;;;;;20.20;63.70;;;16.13;98.43;95762.25;4972117;28;19915;-47
2022/08/31 06:11:30;;;;;;;;;;;20.20;63.00;;;16.12;98.74;95762.56;4969048;28;19921;-48
2022/08/31 06:13:59;;;;;;;;;;;20.20;63.10;;;16.12;98.91;95765.25;4987120;28;20388;-48
2022/08/31 06:16:28;;;;;;;;;;;20.20;63.10;;;16.13;98.85;95766.84;4955954;28;20429;-48
2022/08/31 06:18:57;;;;;;;;;;;20.20;63.10;;;16.16;98.74;95767.06;4956285;28;19930;-48
2022/08/31 06:21:30;;;;;;;;;;;20.20;63.20;;;16.17;98.83;95767.88;4954935;28;19909;-48
2022/08/31 06:24:02;;;;;;;;;;;20.20;63.30;;;16.15;98.63;95768.16;4969960;28;20004;-48
2022/08/31 06:26:33;;;;;;;;;;;20.20;63.20;;;16.07;98.88;95766.13;4952900;28;19909;-53
2022/08/31 06:29:07;;;;;;;;;;;20.20;63.20;;;16.05;98.94;95771.03;4952884;28;20296;-48
2022/08/31 06:31:45;;;;;;;;;;;20.20;63.30;;;15.97;98.20;95769.00;4956884;28;19914;-46
2022/08/31 06:34:14;;;;;;;;;;;20.10;63.30;;;15.85;97.33;95764.06;4963674;28;19997;-48
2022/08/31 06:36:40;;;;;;;;;;;20.10;63.30;;;15.76;96.43;95768.50;4961676;28;20401;-45
2022/08/31 06:39:06;;;;;;;;;;;20.10;63.40;;;15.66;95.82;95774.03;4957917;28;19933;-48
2022/08/31 06:41:38;;;;;;;;;;;20.00;63.40;;;15.61;95.83;95772.22;4964775;28;20293;-50
2022/08/31 06:44:09;;;;;;;;;;;20.00;63.30;;;15.63;96.47;95778.06;4955431;28;19966;-51
2022/08/31 06:46:38;;;;;;;;;;;19.90;63.30;;;15.59;95.65;95776.28;4971810;28;19914;-51
2022/08/31 06:49:09;;;;;;;;;;;19.90;63.40;;;15.58;96.20;95788.13;4967955;28;19923;-50
2022/08/31 06:51:36;;;;;;;;;;;19.80;63.40;;;15.54;95.46;95782.50;4951866;28;19913;-50
2022/08/31 06:54:09;;;;;;;;;;;19.80;63.50;;;15.52;95.71;95783.91;4956400;28;19963;-51
2022/08/31 06:56:35;;;;;;;;;;;19.80;63.50;;;15.42;95.73;95780.28;4966992;28;19905;-51
2022/08/31 06:59:03;;;;;;;;;;;19.70;63.50;;;15.38;96.07;95783.81;4969624;28;19986;-52
2022/08/31 07:01:32;;;;;;;;;;;19.70;63.50;;;15.41;96.33;95789.41;4956593;28;19906;-47
2022/08/31 07:04:09;;;;;;;;;;;19.70;63.50;;;15.36;96.13;95788.69;4969020;28;19909;-52
2022/08/31 07:06:44;;;;;;;;;;;19.70;63.50;;;15.35;96.19;95795.13;4958028;28;19912;-49
2022/08/31 07:09:16;;;;;;;;;;;19.70;63.50;;;15.34;96.23;95790.88;4963399;28;19905;-48
2022/08/31 07:11:47;;;;;;;;;;;19.70;64.20;;;15.36;96.38;95794.84;4967431;28;19967;-50
2022/08/31 07:14:18;;;;;;;;;;;19.70;63.40;;;15.31;96.76;95797.59;4965943;28;20408;-50
2022/08/31 07:16:55;;;;;;;;;;;19.70;63.30;;;15.25;97.11;95790.72;4951524;28;20402;-48
2022/08/31 07:19:21;;;;;;;;;;;19.70;63.40;;;15.26;97.51;95790.44;4983314;28;19913;-48
2022/08/31 07:22:10;;;;;;;;;;;19.60;63.30;;;15.18;97.83;95793.75;4969787;28;19956;-49
2022/08/31 07:24:36;;;;;;;;;;;19.60;63.40;;;15.09;98.14;95790.09;4946084;28;20331;-48
2022/08/31 07:27:09;;;;;;;;;;;19.60;63.40;;;15.07;98.56;95786.91;4951220;28;19913;-48
2022/08/31 07:29:40;;;;;;;;;;;19.60;63.40;;;15.14;98.62;95783.88;4942044;28;19949;-48
2022/08/31 07:32:08;;;;;;;;;;;19.60;63.40;;;15.13;99.09;95784.97;4968613;28;19910;-45
2022/08/31 07:34:35;;;;;;;;;;;19.60;63.40;;;15.18;99.26;95795.63;4978178;28;19907;-48
2022/08/31 07:42:43;;;;;;;;;;;19.70;63.30;;;15.34;98.35;95802.41;4968791;28;19959;-46
2022/08/31 07:45:21;;;;;;;;;;;19.80;63.50;;;15.41;98.04;95796.66;4956142;28;20299;-49
2022/08/31 07:47:48;;;;;;;;;;;19.80;63.40;;;15.44;97.36;95794.19;4966621;28;19910;-51
2022/08/31 07:50:26;;;;;;;;;;;19.90;63.30;;;15.48;97.54;95789.03;4960565;28;19905;-50
2022/08/31 07:52:54;;;;;;;;;;;20.00;63.20;;;15.49;97.26;95790.66;4950300;28;19956;-53
2022/08/31 07:55:24;;;;;;;;;;;20.10;63.20;;;15.53;96.66;95810.44;4967632;28;19910;-46
2022/08/31 07:57:53;;;;;;;;;;;20.20;63.10;;;15.53;96.64;95802.41;4969284;28;19906;-50
2022/08/31 08:00:27;;;;;;;;;;;20.30;63.00;;;15.61;96.31;95798.28;4967308;28;19917;-50
2022/08/31 08:02:54;;;;;;;;;;;20.40;62.90;;;15.65;96.44;95801.97;4952434;28;19976;-49
2022/08/31 08:05:27;;;;;;;;;;;20.50;62.80;;;15.70;96.13;95797.34;4967896;28;20007;-48
2022/08/31 08:08:10;;;;;;;;;;;20.60;62.70;;;15.68;94.95;95804.91;4974183;28;19906;-49
2022/08/31 08:10:42;;;;;;;;;;;20.60;62.60;;;15.79;94.71;95808.22;4956762;28;19905;-46
2022/08/31 08:13:11;;;;;;;;;;;20.70;62.50;;;15.74;94.25;95808.31;4983833;28;19913;-49
2022/08/31 08:15:37;;;;;;;;;;;20.70;62.40;;;15.88;94.17;95811.84;4965302;28;19913;-48
2022/08/31 08:18:04;;;;;;;;;;;20.70;62.40;;;15.90;93.25;95812.34;4984582;28;20475;-51
2022/08/31 08:20:35;;;;;;;;;;;20.70;62.30;;;15.98;93.44;95826.19;4963156;28;19913;-53
2022/08/31 08:23:13;;;;;;;;;;;20.70;63.10;;;15.92;92.48;95822.81;4968400;28;19913;-53
2022/08/31 08:25:40;;;;;;;;;;;20.80;62.30;;;15.84;91.92;95818.88;4971742;28;20446;-53
2022/08/31 08:28:16;;;;;;;;;;;20.70;62.30;;;15.86;92.58;95826.66;4959536;28;19910;-51
2022/08/31 08:30:44;;;;;;;;;;;20.70;62.30;;;15.84;92.28;95823.47;4954671;28;20361;-48
2022/08/31 08:33:14;;;;;;;;;;;20.60;62.20;;;15.82;92.46;95823.75;4963658;28;19960;-49
2022/08/31 08:35:40;;;;;;;;;;;20.60;62.30;;;15.85;92.70;95833.13;4956891;28;20297;-46
2022/08/31 08:38:12;;;;;;;;;;;20.60;62.30;;;15.86;92.88;95829.38;4981896;28;19924;-50
2022/08/31 08:40:45;;;;;;;;;;;20.60;62.30;;;15.88;92.39;95833.31;4971464;28;19968;-50
2022/08/31 08:43:16;;;;;;;;;;;20.60;62.30;;;15.96;92.72;95843.41;4964871;28;20321;-49
2022/08/31 08:45:47;;;;;;;;;;;20.60;62.30;;;15.96;92.20;95842.63;4965498;28;19912;-52
2022/08/31 08:48:21;;;;;;;;;;;20.60;62.30;;;16.08;92.10;95848.34;4964571;28;19913;-52
2022/08/31 08:50:52;;;;;;;;;;;20.60;62.30;;;16.18;91.96;95852.75;4959726;28;19909;-54
2022/08/31 08:53:24;;;;;;;;;;;20.60;62.30;;;16.14;90.92;95854.44;4942275;28;19906;-51
2022/08/31 08:55:51;;;;;;;;;;;20.60;62.30;;;16.12;90.90;95857.41;4945446;28;19909;-50
2022/08/31 08:58:18;;;;;;;;;;;20.70;62.30;;;16.15;91.68;95861.41;4956548;28;19910;-50
2022/08/31 09:00:53;;;;;;;;;;;20.60;62.20;;;16.21;91.90;95862.94;4943025;28;19956;-47
2022/08/31 09:03:43;;;;;;;;;;;20.70;62.30;;;16.26;91.67;95867.41;4954052;28;20278;-50
2022/08/31 09:06:45;;;;;;;;;;;20.70;62.30;;;16.26;91.22;95868.19;4966677;28;19905;-49
2022/08/31 09:10:06;;;;;;;;;;;20.70;62.30;;;16.18;90.48;95864.31;4961916;28;19913;-48
2022/08/31 09:13:17;;;;;;;;;;;20.60;62.20;;;16.21;91.15;95865.63;4964616;28;20336;-49
2022/08/31 09:15:53;;;;;;;;;;;20.60;62.30;;;16.18;91.08;95871.56;4961421;28;19906;-49
2022/08/31 09:18:48;;;;;;;;;;;20.60;62.30;;;16.19;91.48;95865.09;4968861;28;19905;-49
2022/08/31 09:21:33;;;;;;;;;;;20.60;62.30;;;16.15;91.27;95864.09;4962798;28;19910;-51
2022/08/31 09:24:07;;;;;;;;;;;20.60;62.30;;;16.16;91.48;95863.78;4968565;28;20392;-49
2022/08/31 09:27:19;;;;;;;;;;;20.60;62.30;;;16.19;91.27;95870.47;4964595;28;20472;-49
2022/08/31 09:30:00;;;;;;;;;;;20.60;62.30;;;16.16;91.51;95863.78;4965115;28;20246;-49
2022/08/31 09:32:35;;;;;;;;;;;20.60;62.20;;;16.21;91.68;95868.31;4958019;28;19910;-49
2022/08/31 09:35:08;;;;;;;;;;;20.60;62.20;;;16.24;92.29;95867.72;4960116;28;19906;-48
2022/08/31 09:37:44;;;;;;;;;;;20.70;62.10;;;16.27;90.93;95872.50;4969390;28;19966;-48
2022/08/31 09:40:34;;;;;;;;;;;20.70;62.10;;;16.37;91.72;95876.91;4961889;28;19910;-46
2022/08/31 09:43:22;;;;;;;;;;;20.80;62.10;;;16.44;90.49;95871.94;4964485;28;19906;-50
2022/08/31 09:46:23;;;;;;;;;;;20.90;62.10;;;16.49;89.92;95866.50;4958149;28;19944;-46
2022/08/31 09:48:55;;;;;;;;;;;21.00;62.00;;;16.57;90.24;95867.69;4951727;28;19906;-46
2022/08/31 09:51:34;;;;;;;;;;;21.10;61.80;;;16.63;90.38;95861.16;4961708;28;20019;-46
2022/08/31 09:56:58;;;;;;;;;;;21.50;61.50;;;16.83;90.64;95858.13;4960384;28;19913;-48
2022/08/31 09:59:42;;;;;;;;;;;21.70;61.20;;;16.97;89.48;95863.50;4962845;28;19916;-51
2022/08/31 10:02:25;;;;;;;;;;;21.80;61.00;;;17.07;87.94;95859.81;4956432;28;19964;-49
2022/08/31 10:04:56;;;;;;;;;;;22.10;60.80;;;17.19;89.52;95853.94;4955776;28;20146;-44
2022/08/31 10:08:12;;;;;;;;;;;22.20;60.50;;;17.25;88.55;95861.63;4959459;28;19905;-49
2022/08/31 10:10:41;;;;;;;;;;;22.50;60.20;;;17.34;88.31;95850.97;4963396;28;19945;-50
2022/08/31 10:13:48;;;;;;;;;;;22.60;60.00;;;17.44;87.94;95861.50;4962601;28;19914;-50
2022/08/31 10:16:41;;;;;;;;;;;22.80;59.80;;;17.60;87.67;95853.91;4938062;28;19921;-49
2022/08/31 10:19:29;;;;;;;;;;;22.90;59.60;;;17.83;86.88;95845.88;4969699;28;20390;-46
2022/08/31 10:22:24;;;;;;;;;;;23.10;59.40;;;17.89;84.43;95847.38;4971123;28;19913;-48
2022/08/31 10:25:05;;;;;;;;;;;23.40;59.40;;;17.93;85.96;95857.25;4952561;28;19929;-48
2022/08/31 10:27:47;;;;;;;;;;;23.60;59.10;;;17.65;84.39;95848.41;4937714;28;20000;-48
2022/08/31 10:30:19;;;;;;;;;;;23.70;58.90;;;17.83;84.13;95851.28;4950504;28;19921;-45
2022/08/31 10:35:01;;;;;;;;;;;23.70;58.70;;;17.95;83.27;95856.94;4952302;28;19960;-48
2022/08/31 10:36:14;;;;;;;;;;;23.70;58.60;;;18.10;82.72;95863.88;4959795;28;19905;-46
2022/08/31 10:38:46;;;;;;;;;;;23.70;58.60;;;18.04;80.81;95861.28;4966801;28;19921;-53
2022/08/31 10:41:17;;;;;;;;;;;23.70;58.50;;;18.10;81.63;95869.25;4962897;28;20742;-51
2022/08/31 10:45:08;;;;;;;;;;;23.70;58.40;;;18.25;81.79;95863.50;4962626;28;20270;-46
2022/08/31 10:47:40;;;;;;;;;;;23.80;58.30;;;18.23;79.05;95861.09;4911904;29;19914;-48
2022/08/31 10:50:12;;;;;;;;;;;24.00;58.20;;;18.30;80.52;95865.28;4948534;28;19910;-50
2022/08/31 10:53:12;;;;;;;;;;;24.00;57.90;;;18.41;80.42;95866.63;4970696;28;19941;-51
2022/08/31 10:56:13;;;;;;;;;;;24.10;57.80;;;18.61;79.78;95868.00;4957086;28;19928;-48
2022/08/31 10:59:28;;;;;;;;;;;24.20;58.30;;;18.66;77.89;95860.59;4951943;28;19910;-47
2022/08/31 11:02:47;;;;;;;;;;;24.40;57.50;;;18.73;78.48;95850.19;4960783;28;19906;-53
2022/08/31 11:06:33;;;;;;;;;;;24.50;57.40;;;18.62;76.80;95839.97;4886006;29;20532;-51
2022/08/31 11:09:11;;;;;;;;;;;24.60;56.90;;;18.81;77.83;95842.47;4959765;28;19914;-50
2022/08/31 11:11:41;;;;;;;;;;;24.80;56.80;;;18.88;77.23;95838.19;4983619;23;19918;-48
2022/08/31 11:14:43;;;;;;;;;;;24.90;56.60;;;19.15;77.01;95837.19;4981240;28;19916;-46
2022/08/31 11:17:42;;;;;;;;;;;25.00;56.50;;;19.22;75.47;95833.25;4954742;28;19906;-49
2022/08/31 11:20:56;;;;;;;;;;;25.10;56.40;;;19.09;74.45;95838.44;4968453;28;19910;-49
2022/08/31 11:23:27;;;;;;;;;;;25.20;56.10;;;19.25;75.86;95838.81;4909684;29;19914;-46
2022/08/31 11:26:30;;;;;;;;;;;25.20;56.00;;;19.48;74.43;95833.31;4947542;28;19912;-49
2022/08/31 11:29:42;;;;;;;;;;;25.30;55.90;;;19.17;75.13;95834.97;4946207;28;19910;-49
2022/08/31 11:32:28;;;;;;;;;;;25.30;55.80;;;19.33;75.68;95821.81;4915895;28;20579;-48
2022/08/31 11:35:00;;;;;;;;;;;25.20;55.80;;;19.44;74.80;95825.03;4949831;28;19941;-49
2022/08/31 11:37:49;;;;;;;;;;;25.30;55.70;;;19.44;75.40;95824.25;4949585;28;19905;-50
2022/08/31 11:40:42;;;;;;;;;;;25.30;55.50;;;19.50;74.94;95821.06;4951187;28;20001;-51
2022/08/31 11:43:30;;;;;;;;;;;25.50;55.40;;;19.49;75.28;95811.38;4931615;29;19913;-52
2022/08/31 11:46:16;;;;;;;;;;;25.70;55.20;;;19.78;74.36;95808.09;4942178;29;20308;-48
2022/08/31 11:49:00;;;;;;;;;;;26.00;54.90;;;20.19;72.35;95814.91;4942000;29;19914;-49
2022/08/31 11:51:45;;;;;;;;;;;26.80;54.50;;;20.60;69.71;95805.47;4950465;29;20327;-48
2022/08/31 11:54:25;;;;;;;;;;;27.40;54.00;;;20.87;69.33;95809.69;4949044;29;19913;-48
2022/08/31 11:56:55;;;;;;;;;;;27.80;53.60;;;20.85;68.14;95801.09;4952568;29;20312;-47
2022/08/31 11:59:33;;;;;;;;;;;28.20;53.20;;;21.01;68.26;95798.63;4936277;29;20299;-47
2022/08/31 12:02:19;;;;;;;;;;;28.40;52.70;;;20.62;67.51;95802.44;4951454;28;19906;-49
2022/08/31 12:04:50;;;;;;;;;;;28.50;52.20;;;21.00;67.70;95808.66;4950600;29;19916;-47
2022/08/31 12:07:35;;;;;;;;;;;28.60;52.00;;;21.27;65.59;95804.69;4951812;29;19910;-49